TimeCDT,TemperatureF,Dew PointF,Humidity,Sea Level PressureIn,VisibilityMPH,Wind Direction,Wind SpeedMPH,Gust SpeedMPH,PrecipitationIn,Events,Conditions,WindDirDegrees,DateUTC
12:15 AM,59.0,46.4,63,29.97,10.0,Calm,Calm,-,N/A,,Overcast,0,2013-10-19 05:15:00
12:35 AM,57.2,46.4,67,29.97,10.0,Calm,Calm,-,N/A,,Overcast,0,2013-10-19 05:35:00
12:55 AM,57.2,46.4,67,29.96,10.0,Calm,Calm,-,N/A,,Overcast,0,2013-10-19 05:55:00
1:15 AM,57.2,46.4,67,29.96,10.0,Calm,Calm,-,N/A,,Overcast,0,2013-10-19 06:15:00
1:35 AM,57.2,46.4,67,29.96,10.0,Calm,Calm,-,N/A,,Overcast,0,2013-10-19 06:35:00
1:55 AM,57.2,46.4,67,29.96,10.0,NW,4.6,-,N/A,,Overcast,320,2013-10-19 06:55:00
2:15 AM,57.2,46.4,67,29.96,10.0,Calm,Calm,-,N/A,,Overcast,0,2013-10-19 07:15:00
2:35 AM,57.2,46.4,67,29.94,10.0,NNW,3.5,-,N/A,,Overcast,340,2013-10-19 07:35:00
2:55 AM,57.2,44.6,63,29.94,10.0,NNW,3.5,-,N/A,,Mostly Cloudy,330,2013-10-19 07:55:00
3:15 AM,55.4,44.6,67,29.94,10.0,North,4.6,-,N/A,,Overcast,350,2013-10-19 08:15:00
3:35 AM,55.4,44.6,67,29.94,10.0,NNW,3.5,-,N/A,,Overcast,340,2013-10-19 08:35:00
3:55 AM,55.4,44.6,67,29.94,10.0,NW,3.5,-,N/A,,Overcast,320,2013-10-19 08:55:00
4:15 AM,55.4,44.6,67,29.94,10.0,Calm,Calm,-,N/A,,Overcast,0,2013-10-19 09:15:00
4:35 AM,55.4,44.6,67,29.93,10.0,Calm,Calm,-,N/A,,Overcast,0,2013-10-19 09:35:00
4:55 AM,55.4,44.6,67,29.93,10.0,Calm,Calm,-,N/A,,Overcast,0,2013-10-19 09:55:00
5:15 AM,55.4,44.6,67,29.93,10.0,Calm,Calm,-,N/A,,Overcast,0,2013-10-19 10:15:00
5:35 AM,55.4,44.6,67,29.94,10.0,Calm,Calm,-,N/A,,Overcast,0,2013-10-19 10:35:00
5:55 AM,53.6,44.6,72,29.96,10.0,WNW,9.2,-,N/A,,Overcast,300,2013-10-19 10:55:00
6:15 AM,53.6,44.6,72,29.98,10.0,NW,10.4,-,N/A,,Overcast,310,2013-10-19 11:15:00
6:35 AM,51.8,42.8,71,29.99,10.0,NNW,13.8,21.9,N/A,,Overcast,330,2013-10-19 11:35:00
6:55 AM,51.8,41.0,67,30.02,10.0,NW,12.7,21.9,0.01,,Overcast,320,2013-10-19 11:55:00
7:15 AM,48.2,39.2,71,30.01,10.0,NNW,13.8,20.7,0.02,,Overcast,340,2013-10-19 12:15:00
7:35 AM,48.2,37.4,66,30.02,10.0,NNW,6.9,-,0.04,,Mostly Cloudy,340,2013-10-19 12:35:00
7:55 AM,48.2,37.4,66,30.02,10.0,NNW,5.8,-,0.04,,Mostly Cloudy,340,2013-10-19 12:55:00
8:15 AM,48.2,37.4,66,30.03,10.0,NNW,6.9,-,N/A,,Overcast,330,2013-10-19 13:15:00
8:35 AM,48.2,39.2,71,30.04,10.0,NNW,3.5,-,N/A,,Overcast,330,2013-10-19 13:35:00
8:55 AM,48.2,39.2,71,30.05,10.0,NNW,8.1,-,N/A,,Overcast,340,2013-10-19 13:55:00
9:15 AM,48.2,39.2,71,30.06,10.0,NNW,9.2,-,N/A,,Overcast,340,2013-10-19 14:15:00
9:35 AM,48.2,39.2,71,30.06,10.0,NW,13.8,-,N/A,,Overcast,320,2013-10-19 14:35:00
9:55 AM,48.2,37.4,66,30.07,10.0,NNW,8.1,-,N/A,,Overcast,330,2013-10-19 14:55:00
10:15 AM,50.0,37.4,62,30.07,10.0,NW,6.9,-,N/A,,Overcast,320,2013-10-19 15:15:00
10:35 AM,50.0,37.4,62,30.08,10.0,NW,8.1,-,N/A,,Overcast,310,2013-10-19 15:35:00
10:55 AM,48.2,37.4,66,30.08,10.0,WNW,8.1,-,N/A,,Overcast,290,2013-10-19 15:55:00
11:15 AM,48.2,37.4,66,30.08,10.0,WNW,8.1,-,N/A,,Overcast,300,2013-10-19 16:15:00
11:35 AM,48.2,37.4,66,30.08,10.0,NNW,8.1,-,N/A,,Overcast,330,2013-10-19 16:35:00
11:55 AM,50.0,37.4,62,30.08,10.0,NNW,8.1,-,N/A,,Overcast,330,2013-10-19 16:55:00
12:15 PM,48.2,37.4,66,30.09,10.0,WNW,9.2,17.3,N/A,,Overcast,300,2013-10-19 17:15:00
12:35 PM,48.2,37.4,66,30.08,10.0,WNW,8.1,-,N/A,,Overcast,300,2013-10-19 17:35:00
12:55 PM,50.0,37.4,62,30.08,10.0,WNW,10.4,-,N/A,,Overcast,290,2013-10-19 17:55:00
1:15 PM,50.0,35.6,58,30.08,10.0,NW,8.1,-,N/A,,Overcast,320,2013-10-19 18:15:00
1:35 PM,50.0,35.6,58,30.07,10.0,WNW,8.1,-,N/A,,Overcast,300,2013-10-19 18:35:00
1:55 PM,51.8,35.6,54,30.07,10.0,NNW,4.6,-,N/A,,Overcast,330,2013-10-19 18:55:00
2:15 PM,53.6,35.6,51,30.06,10.0,WNW,5.8,-,N/A,,Scattered Clouds,290,2013-10-19 19:15:00
2:35 PM,53.6,35.6,51,30.06,10.0,North,4.6,-,N/A,,Scattered Clouds,360,2013-10-19 19:35:00
2:55 PM,53.6,35.6,51,30.06,10.0,NNW,6.9,-,N/A,,Partly Cloudy,330,2013-10-19 19:55:00
3:15 PM,55.4,35.6,47,30.06,10.0,NNW,8.1,-,N/A,,Clear,340,2013-10-19 20:15:00
3:35 PM,55.4,35.6,47,30.06,10.0,NW,5.8,-,N/A,,Clear,310,2013-10-19 20:35:00
3:55 PM,55.4,35.6,47,30.06,10.0,NW,8.1,-,N/A,,Clear,310,2013-10-19 20:55:00
4:15 PM,55.4,35.6,47,30.06,10.0,North,6.9,-,N/A,,Clear,350,2013-10-19 21:15:00
4:35 PM,55.4,35.6,47,30.06,10.0,West,9.2,-,N/A,,Clear,270,2013-10-19 21:35:00
4:55 PM,55.4,35.6,47,30.06,10.0,WNW,5.8,-,N/A,,Clear,300,2013-10-19 21:55:00
5:15 PM,57.2,35.6,44,30.06,10.0,WNW,3.5,-,N/A,,Clear,290,2013-10-19 22:15:00
5:35 PM,55.4,35.6,47,30.06,10.0,West,5.8,-,N/A,,Clear,260,2013-10-19 22:35:00
5:55 PM,55.4,35.6,47,30.06,10.0,West,3.5,-,N/A,,Clear,270,2013-10-19 22:55:00
6:15 PM,53.6,37.4,54,30.06,10.0,Calm,Calm,-,N/A,,Clear,0,2013-10-19 23:15:00
6:35 PM,51.8,35.6,54,30.06,10.0,Calm,Calm,-,N/A,,Clear,0,2013-10-19 23:35:00
6:55 PM,48.2,35.6,62,30.06,10.0,Calm,Calm,-,N/A,,Clear,0,2013-10-19 23:55:00
7:15 PM,48.2,35.6,62,30.07,10.0,Calm,Calm,-,N/A,,Clear,0,2013-10-20 00:15:00
7:35 PM,46.4,35.6,66,30.06,10.0,Calm,Calm,-,N/A,,Clear,0,2013-10-20 00:35:00
7:55 PM,46.4,35.6,66,30.07,10.0,SSW,3.5,-,N/A,,Clear,200,2013-10-20 00:55:00
8:15 PM,46.4,35.6,66,30.07,10.0,Calm,Calm,-,N/A,,Clear,0,2013-10-20 01:15:00
8:35 PM,46.4,35.6,66,30.07,10.0,Calm,Calm,-,N/A,,Clear,0,2013-10-20 01:35:00
8:55 PM,46.4,35.6,66,30.08,10.0,Calm,Calm,-,N/A,,Clear,0,2013-10-20 01:55:00
9:15 PM,44.6,35.6,71,30.08,10.0,Calm,Calm,-,N/A,,Clear,0,2013-10-20 02:15:00
9:35 PM,44.6,35.6,71,30.08,10.0,Calm,Calm,-,N/A,,Clear,0,2013-10-20 02:35:00
9:55 PM,44.6,35.6,71,30.09,2.0,Calm,Calm,-,N/A,,Clear,0,2013-10-20 02:55:00
10:15 PM,44.6,35.6,71,30.09,10.0,Calm,Calm,-,N/A,,Clear,0,2013-10-20 03:15:00
10:35 PM,44.6,33.8,66,30.09,10.0,Calm,Calm,-,N/A,,Clear,0,2013-10-20 03:35:00
10:55 PM,42.8,33.8,70,30.09,10.0,Calm,Calm,-,N/A,,Clear,0,2013-10-20 03:55:00
11:15 PM,42.8,33.8,70,30.09,10.0,Calm,Calm,-,N/A,,Clear,0,2013-10-20 04:15:00
11:35 PM,42.8,33.8,70,30.08,6.0,Calm,Calm,-,N/A,,Clear,0,2013-10-20 04:35:00
11:55 PM,42.8,33.8,70,30.08,10.0,Calm,Calm,-,N/A,,Clear,0,2013-10-20 04:55:00